NDF6PC EDDK-LIPZ
Flight info
| Callsign | NDF6PC |
|---|---|
| Flight time | 1h 13m |
| Altitude | 32000 |
| Route | KUMIK7K KUMIK Y854 BOMBI DCT GIGET DCT ABUKA/N0455F330 DCT BATUB M738 NATAG DCT LORLO DCT UNTAD DCT ADOSA L612 ALBET ALBET2E |
| Aircraft | A320/M-SDE3FGHIRWY/LB1 |
Departure
| Time | 2026-04-26 07:23 |
|---|---|
| Airport | Cologne Bonn Airport (EDDK) |
Arrival
| Time | 2026-04-26 08:37 |
|---|---|
| Airport | Venice Marco Polo Airport (LIPZ) |
| Time | Latitude | Longitude | Altitude | Speed | Heading |
|---|---|---|---|---|---|
| 2026-04-26 06:49 | 50.87964 | 7.12415 | 233 ft | 0 kts | 246° |
| 2026-04-26 07:15 | 50.87965 | 7.12420 | 232 ft | 3 kts | 246° |
| 2026-04-26 07:15 | 50.87975 | 7.12456 | 232 ft | 2 kts | 246° |
| 2026-04-26 07:16 | 50.87987 | 7.12488 | 235 ft | 4 kts | 222° |
| 2026-04-26 07:16 | 50.88008 | 7.12505 | 235 ft | 4 kts | 173° |
| 2026-04-26 07:16 | 50.88030 | 7.12489 | 235 ft | 4 kts | 126° |
| 2026-04-26 07:16 | 50.88034 | 7.12481 | 236 ft | 0 kts | 120° |
| 2026-04-26 07:20 | 50.88032 | 7.12488 | 235 ft | 3 kts | 120° |
| 2026-04-26 07:20 | 50.88012 | 7.12542 | 234 ft | 9 kts | 120° |
| 2026-04-26 07:21 | 50.87989 | 7.12632 | 234 ft | 10 kts | 102° |
| 2026-04-26 07:21 | 50.87991 | 7.12733 | 238 ft | 6 kts | 81° |
| 2026-04-26 07:21 | 50.87996 | 7.12767 | 236 ft | 0 kts | 75° |
| 2026-04-26 07:21 | 50.88000 | 7.12786 | 237 ft | 6 kts | 75° |
| 2026-04-26 07:22 | 50.88007 | 7.12896 | 239 ft | 13 kts | 99° |
| 2026-04-26 07:22 | 50.87968 | 7.13023 | 239 ft | 13 kts | 132° |
| 2026-04-26 07:22 | 50.87906 | 7.13114 | 239 ft | 11 kts | 137° |
| 2026-04-26 07:22 | 50.87809 | 7.13254 | 239 ft | 44 kts | 137° |
| 2026-04-26 07:23 | 50.87406 | 7.13848 | 241 ft | 110 kts | 137° |
| 2026-04-26 07:23 | 50.86713 | 7.14852 | 270 ft | 159 kts | 138° |
| 2026-04-26 07:23 | 50.85855 | 7.16078 | 695 ft | 168 kts | 137° |
| 2026-04-26 07:23 | 50.84970 | 7.17304 | 1404 ft | 170 kts | 138° |
| 2026-04-26 07:24 | 50.84076 | 7.18539 | 2075 ft | 174 kts | 136° |
| 2026-04-26 07:24 | 50.83111 | 7.19902 | 2407 ft | 195 kts | 136° |
| 2026-04-26 07:24 | 50.82067 | 7.21413 | 2849 ft | 209 kts | 132° |
| 2026-04-26 07:24 | 50.81367 | 7.23429 | 3415 ft | 214 kts | 97° |
| 2026-04-26 07:25 | 50.81405 | 7.25837 | 3856 ft | 232 kts | 85° |
| 2026-04-26 07:25 | 50.81321 | 7.28524 | 4275 ft | 255 kts | 95° |
| 2026-04-26 07:25 | 50.81036 | 7.31364 | 4988 ft | 266 kts | 97° |
| 2026-04-26 07:25 | 50.80708 | 7.34266 | 5820 ft | 270 kts | 97° |
| 2026-04-26 07:26 | 50.80386 | 7.37220 | 6587 ft | 278 kts | 96° |
| 2026-04-26 07:26 | 50.80076 | 7.40245 | 7278 ft | 285 kts | 96° |
| 2026-04-26 07:26 | 50.79776 | 7.43400 | 8095 ft | 288 kts | 95° |
| 2026-04-26 07:26 | 50.79494 | 7.46515 | 8891 ft | 292 kts | 95° |
| 2026-04-26 07:27 | 50.79211 | 7.49709 | 9673 ft | 296 kts | 95° |
| 2026-04-26 07:27 | 50.78926 | 7.52955 | 10434 ft | 300 kts | 95° |
| 2026-04-26 07:27 | 50.78634 | 7.56325 | 10810 ft | 319 kts | 94° |
| 2026-04-26 07:27 | 50.78543 | 7.59941 | 11008 ft | 340 kts | 84° |
| 2026-04-26 07:28 | 50.78843 | 7.63762 | 11165 ft | 360 kts | 77° |
| 2026-04-26 07:28 | 50.79293 | 7.67662 | 11608 ft | 370 kts | 77° |
| 2026-04-26 07:28 | 50.79756 | 7.71748 | 12245 ft | 375 kts | 78° |
| 2026-04-26 07:28 | 50.80058 | 7.74447 | 12681 ft | 377 kts | 78° |
| 2026-04-26 07:29 | 50.80660 | 7.79909 | 13555 ft | 382 kts | 78° |
| 2026-04-26 07:29 | 50.81114 | 7.84068 | 14193 ft | 386 kts | 78° |
| 2026-04-26 07:29 | 50.81573 | 7.88278 | 14769 ft | 390 kts | 78° |
| 2026-04-26 07:29 | 50.81880 | 7.91087 | 15157 ft | 392 kts | 79° |
| 2026-04-26 07:30 | 50.82345 | 7.95349 | 15743 ft | 395 kts | 80° |
| 2026-04-26 07:30 | 50.82478 | 7.99765 | 16331 ft | 400 kts | 93° |
| 2026-04-26 07:30 | 50.81933 | 8.04111 | 16893 ft | 406 kts | 108° |
| 2026-04-26 07:30 | 50.80731 | 8.08155 | 17462 ft | 410 kts | 122° |
| 2026-04-26 07:31 | 50.78938 | 8.11665 | 18046 ft | 413 kts | 136° |
| 2026-04-26 07:31 | 50.76655 | 8.14430 | 18621 ft | 416 kts | 148° |
| 2026-04-26 07:31 | 50.74235 | 8.16868 | 19124 ft | 418 kts | 148° |
| 2026-04-26 07:31 | 50.71774 | 8.19334 | 19612 ft | 421 kts | 148° |
| 2026-04-26 07:32 | 50.69292 | 8.21816 | 20089 ft | 424 kts | 148° |
| 2026-04-26 07:32 | 50.66795 | 8.24316 | 20561 ft | 426 kts | 148° |
| 2026-04-26 07:32 | 50.64282 | 8.26832 | 21035 ft | 429 kts | 148° |
| 2026-04-26 07:32 | 50.61757 | 8.29358 | 21525 ft | 431 kts | 148° |
| 2026-04-26 07:33 | 50.59216 | 8.31900 | 21965 ft | 433 kts | 148° |
| 2026-04-26 07:33 | 50.56664 | 8.34453 | 22381 ft | 436 kts | 148° |
| 2026-04-26 07:33 | 50.54130 | 8.36985 | 22811 ft | 438 kts | 148° |
| 2026-04-26 07:33 | 50.51553 | 8.39552 | 23205 ft | 441 kts | 149° |
| 2026-04-26 07:34 | 50.48916 | 8.42178 | 23581 ft | 444 kts | 149° |
| 2026-04-26 07:34 | 50.46294 | 8.44783 | 23939 ft | 446 kts | 149° |
| 2026-04-26 07:34 | 50.43662 | 8.47390 | 24257 ft | 448 kts | 149° |
| 2026-04-26 07:34 | 50.41055 | 8.49969 | 24577 ft | 450 kts | 149° |
| 2026-04-26 07:35 | 50.38406 | 8.52585 | 24898 ft | 452 kts | 149° |
| 2026-04-26 07:35 | 50.35715 | 8.55129 | 25209 ft | 453 kts | 151° |
| 2026-04-26 07:35 | 50.32950 | 8.57546 | 25511 ft | 454 kts | 153° |
| 2026-04-26 07:35 | 50.30156 | 8.59848 | 25833 ft | 455 kts | 154° |
| 2026-04-26 07:36 | 50.27334 | 8.62113 | 26134 ft | 456 kts | 154° |
| 2026-04-26 07:36 | 50.24505 | 8.64382 | 26434 ft | 457 kts | 154° |
| 2026-04-26 07:36 | 50.21675 | 8.66679 | 26707 ft | 459 kts | 154° |
| 2026-04-26 07:36 | 50.18842 | 8.69016 | 26979 ft | 461 kts | 154° |
| 2026-04-26 07:37 | 50.16014 | 8.71375 | 27244 ft | 462 kts | 153° |
| 2026-04-26 07:37 | 50.13173 | 8.73758 | 27504 ft | 463 kts | 153° |
| 2026-04-26 07:37 | 50.10312 | 8.76088 | 27739 ft | 464 kts | 157° |
| 2026-04-26 07:37 | 50.07340 | 8.77796 | 27979 ft | 462 kts | 167° |
| 2026-04-26 07:38 | 50.04191 | 8.78756 | 28260 ft | 459 kts | 176° |
| 2026-04-26 07:38 | 50.01017 | 8.78934 | 28597 ft | 455 kts | 185° |
| 2026-04-26 07:38 | 49.97871 | 8.78413 | 28933 ft | 452 kts | 189° |
| 2026-04-26 07:38 | 49.94746 | 8.77753 | 29276 ft | 451 kts | 189° |
| 2026-04-26 07:39 | 49.91675 | 8.77108 | 29591 ft | 450 kts | 189° |
| 2026-04-26 07:39 | 49.88537 | 8.76454 | 29956 ft | 448 kts | 189° |
| 2026-04-26 07:39 | 49.85490 | 8.75824 | 30297 ft | 447 kts | 190° |
| 2026-04-26 07:39 | 49.82417 | 8.75192 | 30638 ft | 444 kts | 189° |
| 2026-04-26 07:40 | 49.79358 | 8.74566 | 30940 ft | 443 kts | 189° |
| 2026-04-26 07:40 | 49.76304 | 8.73940 | 31229 ft | 442 kts | 189° |
| 2026-04-26 07:40 | 49.73247 | 8.73312 | 31512 ft | 442 kts | 189° |
| 2026-04-26 07:40 | 49.70200 | 8.72685 | 31792 ft | 441 kts | 189° |
| 2026-04-26 07:41 | 49.67157 | 8.72061 | 32077 ft | 440 kts | 189° |
| 2026-04-26 07:41 | 49.64111 | 8.71443 | 32242 ft | 441 kts | 189° |
| 2026-04-26 07:41 | 49.61102 | 8.70839 | 32295 ft | 443 kts | 190° |
| 2026-04-26 07:42 | 49.54991 | 8.69617 | 32293 ft | 443 kts | 190° |
| 2026-04-26 07:42 | 49.48846 | 8.68686 | 32300 ft | 446 kts | 181° |
| 2026-04-26 07:43 | 49.42714 | 8.70352 | 32297 ft | 453 kts | 163° |
| 2026-04-26 07:43 | 49.36851 | 8.74017 | 32287 ft | 455 kts | 160° |
| 2026-04-26 07:44 | 49.30978 | 8.77708 | 32276 ft | 455 kts | 161° |
| 2026-04-26 07:44 | 49.25148 | 8.81356 | 32266 ft | 455 kts | 161° |
| 2026-04-26 07:45 | 49.19289 | 8.85014 | 32252 ft | 455 kts | 161° |
| 2026-04-26 07:45 | 49.13416 | 8.88661 | 32231 ft | 455 kts | 161° |
| 2026-04-26 07:46 | 49.07544 | 8.92306 | 32230 ft | 455 kts | 161° |
| 2026-04-26 07:46 | 49.01711 | 8.95923 | 32230 ft | 456 kts | 161° |
| 2026-04-26 07:47 | 48.95825 | 8.99558 | 32231 ft | 456 kts | 161° |
| 2026-04-26 07:47 | 48.89942 | 9.03186 | 32218 ft | 456 kts | 160° |
| 2026-04-26 07:48 | 48.84056 | 9.06808 | 32223 ft | 457 kts | 161° |
| 2026-04-26 07:48 | 48.78158 | 9.10436 | 32226 ft | 457 kts | 161° |
| 2026-04-26 07:49 | 48.72261 | 9.14047 | 32230 ft | 457 kts | 161° |
| 2026-04-26 07:49 | 48.66357 | 9.17648 | 32216 ft | 458 kts | 161° |
| 2026-04-26 07:50 | 48.57477 | 9.23041 | 32220 ft | 459 kts | 161° |
| 2026-04-26 07:50 | 48.51589 | 9.26615 | 32230 ft | 460 kts | 161° |
| 2026-04-26 07:51 | 48.45633 | 9.30226 | 32228 ft | 461 kts | 161° |
| 2026-04-26 07:51 | 48.39679 | 9.33809 | 32223 ft | 461 kts | 161° |
| 2026-04-26 07:52 | 48.33720 | 9.37387 | 32218 ft | 461 kts | 161° |
| 2026-04-26 07:52 | 48.27766 | 9.40964 | 32218 ft | 461 kts | 161° |
| 2026-04-26 07:53 | 48.21817 | 9.44540 | 32226 ft | 460 kts | 161° |
| 2026-04-26 07:53 | 48.15857 | 9.48104 | 32219 ft | 461 kts | 160° |
| 2026-04-26 07:54 | 48.09896 | 9.51651 | 32223 ft | 461 kts | 161° |
| 2026-04-26 07:54 | 48.03958 | 9.55185 | 32222 ft | 462 kts | 159° |
| 2026-04-26 07:55 | 47.98438 | 9.60162 | 32218 ft | 466 kts | 146° |
| 2026-04-26 07:55 | 47.93189 | 9.65856 | 32220 ft | 466 kts | 146° |
| 2026-04-26 07:56 | 47.87934 | 9.71514 | 32222 ft | 466 kts | 146° |
| 2026-04-26 07:56 | 47.82675 | 9.77165 | 32222 ft | 466 kts | 146° |
| 2026-04-26 07:57 | 47.77406 | 9.82805 | 32217 ft | 467 kts | 146° |
| 2026-04-26 07:57 | 47.72163 | 9.88423 | 32221 ft | 467 kts | 146° |
| 2026-04-26 07:58 | 47.66876 | 9.94076 | 32224 ft | 467 kts | 146° |
| 2026-04-26 07:58 | 47.61580 | 9.99721 | 32224 ft | 468 kts | 146° |
| 2026-04-26 07:59 | 47.56326 | 10.05296 | 32218 ft | 468 kts | 146° |
| 2026-04-26 07:59 | 47.51031 | 10.10893 | 32220 ft | 468 kts | 145° |
| 2026-04-26 08:00 | 47.45725 | 10.16504 | 32218 ft | 469 kts | 146° |
| 2026-04-26 08:00 | 47.40332 | 10.21937 | 32224 ft | 469 kts | 149° |
| 2026-04-26 08:01 | 47.34756 | 10.26954 | 32227 ft | 469 kts | 150° |
| 2026-04-26 08:01 | 47.29142 | 10.31880 | 32227 ft | 469 kts | 150° |
| 2026-04-26 08:02 | 47.23545 | 10.36859 | 32238 ft | 470 kts | 149° |
| 2026-04-26 08:02 | 47.17970 | 10.41884 | 32241 ft | 471 kts | 149° |
| 2026-04-26 08:03 | 47.12422 | 10.46889 | 32245 ft | 471 kts | 149° |
| 2026-04-26 08:03 | 47.06789 | 10.51834 | 32245 ft | 471 kts | 154° |
| 2026-04-26 08:04 | 47.00671 | 10.55169 | 32242 ft | 469 kts | 164° |
| 2026-04-26 08:04 | 46.94429 | 10.57979 | 32255 ft | 470 kts | 164° |
| 2026-04-26 08:05 | 46.88181 | 10.60795 | 32247 ft | 470 kts | 164° |
| 2026-04-26 08:05 | 46.81928 | 10.63609 | 32260 ft | 469 kts | 164° |
| 2026-04-26 08:06 | 46.75682 | 10.66418 | 32252 ft | 470 kts | 164° |
| 2026-04-26 08:06 | 46.69446 | 10.69064 | 32241 ft | 470 kts | 167° |
| 2026-04-26 08:07 | 46.63074 | 10.71167 | 32233 ft | 469 kts | 170° |
| 2026-04-26 08:07 | 46.56666 | 10.73069 | 32224 ft | 469 kts | 170° |
| 2026-04-26 08:08 | 46.50287 | 10.75057 | 32222 ft | 469 kts | 169° |
| 2026-04-26 08:08 | 46.43920 | 10.77150 | 32217 ft | 469 kts | 168° |
| 2026-04-26 08:09 | 46.37564 | 10.79258 | 32244 ft | 468 kts | 168° |
| 2026-04-26 08:09 | 46.31240 | 10.81309 | 32237 ft | 468 kts | 169° |
| 2026-04-26 08:10 | 46.24883 | 10.83365 | 32231 ft | 468 kts | 169° |
| 2026-04-26 08:10 | 46.18523 | 10.85407 | 32219 ft | 469 kts | 169° |
| 2026-04-26 08:11 | 46.12146 | 10.87453 | 32192 ft | 469 kts | 169° |
| 2026-04-26 08:11 | 46.05766 | 10.89504 | 31850 ft | 470 kts | 169° |
| 2026-04-26 08:12 | 46.02595 | 10.90521 | 30616 ft | 478 kts | 168° |
| 2026-04-26 08:12 | 45.99322 | 10.91565 | 29231 ft | 484 kts | 168° |
| 2026-04-26 08:12 | 45.96024 | 10.92611 | 28047 ft | 485 kts | 168° |
| 2026-04-26 08:12 | 45.92715 | 10.93660 | 26743 ft | 489 kts | 168° |
| 2026-04-26 08:13 | 45.89382 | 10.94715 | 25440 ft | 492 kts | 168° |
| 2026-04-26 08:13 | 45.86039 | 10.95775 | 24362 ft | 491 kts | 168° |
| 2026-04-26 08:13 | 45.82729 | 10.96827 | 23475 ft | 485 kts | 168° |
| 2026-04-26 08:13 | 45.79436 | 10.97880 | 22555 ft | 480 kts | 167° |
| 2026-04-26 08:14 | 45.76203 | 10.98914 | 21753 ft | 473 kts | 167° |
| 2026-04-26 08:14 | 45.73016 | 10.99930 | 20973 ft | 467 kts | 167° |
| 2026-04-26 08:14 | 45.69873 | 11.01042 | 20191 ft | 462 kts | 162° |
| 2026-04-26 08:14 | 45.66928 | 11.02839 | 19446 ft | 457 kts | 150° |
| 2026-04-26 08:15 | 45.64302 | 11.05340 | 18721 ft | 451 kts | 140° |
| 2026-04-26 08:15 | 45.62061 | 11.08423 | 17950 ft | 445 kts | 129° |
| 2026-04-26 08:15 | 45.60259 | 11.11967 | 17298 ft | 437 kts | 121° |
| 2026-04-26 08:15 | 45.58628 | 11.15601 | 16646 ft | 431 kts | 121° |
| 2026-04-26 08:16 | 45.57038 | 11.19132 | 16067 ft | 425 kts | 122° |
| 2026-04-26 08:16 | 45.55454 | 11.22649 | 15514 ft | 419 kts | 122° |
| 2026-04-26 08:16 | 45.53886 | 11.26130 | 14962 ft | 413 kts | 122° |
| 2026-04-26 08:16 | 45.52340 | 11.29561 | 14420 ft | 409 kts | 122° |
| 2026-04-26 08:17 | 45.50807 | 11.32952 | 13965 ft | 403 kts | 122° |
| 2026-04-26 08:17 | 45.49319 | 11.36234 | 13837 ft | 387 kts | 122° |
| 2026-04-26 08:17 | 45.47881 | 11.39399 | 13697 ft | 372 kts | 122° |
| 2026-04-26 08:17 | 45.46501 | 11.42428 | 13569 ft | 358 kts | 122° |
| 2026-04-26 08:18 | 45.45170 | 11.45354 | 13441 ft | 345 kts | 122° |
| 2026-04-26 08:18 | 45.43887 | 11.48184 | 13216 ft | 337 kts | 121° |
| 2026-04-26 08:18 | 45.43048 | 11.50028 | 13100 ft | 332 kts | 123° |
| 2026-04-26 08:18 | 45.41605 | 11.52599 | 12911 ft | 332 kts | 131° |
| 2026-04-26 08:19 | 45.40067 | 11.55057 | 12585 ft | 330 kts | 131° |
| 2026-04-26 08:19 | 45.38537 | 11.57479 | 12287 ft | 328 kts | 131° |
| 2026-04-26 08:19 | 45.37014 | 11.59879 | 11990 ft | 326 kts | 131° |
| 2026-04-26 08:19 | 45.35672 | 11.62461 | 11695 ft | 324 kts | 118° |
| 2026-04-26 08:20 | 45.34818 | 11.65398 | 11399 ft | 321 kts | 104° |
| 2026-04-26 08:20 | 45.34493 | 11.68517 | 11109 ft | 319 kts | 90° |
| 2026-04-26 08:20 | 45.34605 | 11.71657 | 10819 ft | 317 kts | 85° |
| 2026-04-26 08:20 | 45.34753 | 11.74781 | 10524 ft | 317 kts | 85° |
| 2026-04-26 08:21 | 45.34893 | 11.77889 | 10294 ft | 310 kts | 85° |
| 2026-04-26 08:21 | 45.34953 | 11.80900 | 10163 ft | 300 kts | 94° |
| 2026-04-26 08:21 | 45.34512 | 11.83760 | 9983 ft | 295 kts | 110° |
| 2026-04-26 08:21 | 45.33554 | 11.86317 | 9521 ft | 299 kts | 127° |
| 2026-04-26 08:22 | 45.32197 | 11.88507 | 9334 ft | 290 kts | 133° |
| 2026-04-26 08:22 | 45.30591 | 11.90122 | 9188 ft | 280 kts | 160° |
| 2026-04-26 08:22 | 45.28709 | 11.90418 | 9021 ft | 270 kts | 191° |
| 2026-04-26 08:22 | 45.27022 | 11.89376 | 8973 ft | 267 kts | 219° |
| 2026-04-26 08:23 | 45.25605 | 11.87649 | 8863 ft | 268 kts | 222° |
| 2026-04-26 08:23 | 45.24211 | 11.85887 | 8736 ft | 268 kts | 223° |
| 2026-04-26 08:23 | 45.22820 | 11.84121 | 8608 ft | 268 kts | 222° |
| 2026-04-26 08:23 | 45.21430 | 11.82361 | 8481 ft | 267 kts | 222° |
| 2026-04-26 08:24 | 45.20060 | 11.80637 | 8354 ft | 267 kts | 222° |
| 2026-04-26 08:24 | 45.18666 | 11.78889 | 8227 ft | 267 kts | 222° |
| 2026-04-26 08:24 | 45.17257 | 11.77122 | 8099 ft | 267 kts | 221° |
| 2026-04-26 08:24 | 45.15889 | 11.75408 | 7978 ft | 266 kts | 221° |
| 2026-04-26 08:25 | 45.14508 | 11.73679 | 7870 ft | 265 kts | 221° |
| 2026-04-26 08:25 | 45.13112 | 11.71966 | 7725 ft | 263 kts | 217° |
| 2026-04-26 08:25 | 45.11487 | 11.71014 | 7609 ft | 250 kts | 183° |
| 2026-04-26 08:25 | 45.09830 | 11.71436 | 7471 ft | 242 kts | 150° |
| 2026-04-26 08:26 | 45.08562 | 11.72951 | 7362 ft | 240 kts | 130° |
| 2026-04-26 08:26 | 45.07456 | 11.74725 | 7241 ft | 240 kts | 128° |
| 2026-04-26 08:26 | 45.06695 | 11.76773 | 7115 ft | 236 kts | 99° |
| 2026-04-26 08:26 | 45.06796 | 11.79020 | 6996 ft | 233 kts | 68° |
| 2026-04-26 08:27 | 45.07706 | 11.80889 | 6875 ft | 233 kts | 41° |
| 2026-04-26 08:27 | 45.08924 | 11.82415 | 6749 ft | 234 kts | 41° |
| 2026-04-26 08:27 | 45.10144 | 11.83937 | 6635 ft | 234 kts | 41° |
| 2026-04-26 08:27 | 45.11362 | 11.85457 | 6507 ft | 233 kts | 41° |
| 2026-04-26 08:28 | 45.12578 | 11.86972 | 6382 ft | 233 kts | 41° |
| 2026-04-26 08:28 | 45.13794 | 11.88497 | 6252 ft | 232 kts | 41° |
| 2026-04-26 08:28 | 45.14987 | 11.89998 | 6125 ft | 232 kts | 41° |
| 2026-04-26 08:28 | 45.16191 | 11.91512 | 5992 ft | 230 kts | 42° |
| 2026-04-26 08:29 | 45.17387 | 11.93017 | 5861 ft | 230 kts | 42° |
| 2026-04-26 08:29 | 45.18585 | 11.94525 | 5731 ft | 229 kts | 41° |
| 2026-04-26 08:29 | 45.19776 | 11.96024 | 5606 ft | 229 kts | 41° |
| 2026-04-26 08:29 | 45.20969 | 11.97522 | 5478 ft | 228 kts | 41° |
| 2026-04-26 08:30 | 45.22161 | 11.99014 | 5390 ft | 228 kts | 41° |
| 2026-04-26 08:30 | 45.23348 | 12.00509 | 5258 ft | 228 kts | 41° |
| 2026-04-26 08:30 | 45.24527 | 12.02004 | 5090 ft | 227 kts | 42° |
| 2026-04-26 08:30 | 45.25706 | 12.03500 | 4912 ft | 227 kts | 41° |
| 2026-04-26 08:31 | 45.26885 | 12.04998 | 4726 ft | 228 kts | 41° |
| 2026-04-26 08:31 | 45.28065 | 12.06497 | 4545 ft | 227 kts | 41° |
| 2026-04-26 08:31 | 45.29241 | 12.07992 | 4342 ft | 227 kts | 41° |
| 2026-04-26 08:31 | 45.30419 | 12.09491 | 4180 ft | 227 kts | 41° |
| 2026-04-26 08:32 | 45.31595 | 12.10987 | 3996 ft | 226 kts | 41° |
| 2026-04-26 08:32 | 45.32764 | 12.12476 | 3818 ft | 226 kts | 42° |
| 2026-04-26 08:32 | 45.33925 | 12.13955 | 3629 ft | 222 kts | 42° |
| 2026-04-26 08:32 | 45.35075 | 12.15422 | 3458 ft | 222 kts | 42° |
| 2026-04-26 08:33 | 45.36216 | 12.16877 | 3336 ft | 220 kts | 42° |
| 2026-04-26 08:33 | 45.37351 | 12.18325 | 3131 ft | 217 kts | 42° |
| 2026-04-26 08:33 | 45.38459 | 12.19740 | 2858 ft | 216 kts | 43° |
| 2026-04-26 08:33 | 45.39571 | 12.21161 | 2574 ft | 214 kts | 43° |
| 2026-04-26 08:34 | 45.40675 | 12.22572 | 2294 ft | 212 kts | 43° |
| 2026-04-26 08:34 | 45.41744 | 12.23939 | 2019 ft | 198 kts | 43° |
| 2026-04-26 08:34 | 45.42728 | 12.25198 | 1804 ft | 184 kts | 43° |
| 2026-04-26 08:34 | 45.43653 | 12.26381 | 1521 ft | 172 kts | 44° |
| 2026-04-26 08:35 | 45.44500 | 12.27468 | 1305 ft | 158 kts | 44° |
| 2026-04-26 08:35 | 45.45277 | 12.28462 | 1092 ft | 143 kts | 43° |
| 2026-04-26 08:35 | 45.46012 | 12.29406 | 918 ft | 143 kts | 43° |
| 2026-04-26 08:35 | 45.46753 | 12.30359 | 709 ft | 144 kts | 43° |
| 2026-04-26 08:36 | 45.47488 | 12.31294 | 514 ft | 142 kts | 41° |
| 2026-04-26 08:36 | 45.48237 | 12.32230 | 320 ft | 140 kts | 43° |
| 2026-04-26 08:36 | 45.48940 | 12.33150 | 159 ft | 139 kts | 43° |
| 2026-04-26 08:36 | 45.49640 | 12.34069 | 35 ft | 135 kts | 43° |
| 2026-04-26 08:37 | 45.50270 | 12.34888 | 12 ft | 106 kts | 42° |
| 2026-04-26 08:37 | 45.50746 | 12.35488 | 14 ft | 75 kts | 42° |
| 2026-04-26 08:37 | 45.51050 | 12.35835 | 13 ft | 32 kts | 18° |
| 2026-04-26 08:37 | 45.51224 | 12.35882 | 10 ft | 20 kts | 9° |
| 2026-04-26 08:38 | 45.51260 | 12.35812 | 12 ft | 10 kts | 241° |
| 2026-04-26 08:38 | 45.51182 | 12.35698 | 14 ft | 17 kts | 223° |
| 2026-04-26 08:38 | 45.51080 | 12.35563 | 15 ft | 26 kts | 222° |
| 2026-04-26 08:38 | 45.50971 | 12.35361 | 19 ft | 26 kts | 257° |
| 2026-04-26 08:39 | 45.50897 | 12.35127 | 19 ft | 27 kts | 220° |
| 2026-04-26 08:39 | 45.50750 | 12.34937 | 15 ft | 30 kts | 220° |
| 2026-04-26 08:39 | 45.50618 | 12.34770 | 14 ft | 25 kts | 223° |
| 2026-04-26 08:39 | 45.50495 | 12.34610 | 17 ft | 23 kts | 222° |
| 2026-04-26 08:40 | 45.50374 | 12.34455 | 19 ft | 23 kts | 225° |
| 2026-04-26 08:40 | 45.50397 | 12.34352 | 20 ft | 11 kts | 349° |
| 2026-04-26 08:40 | 45.50426 | 12.34278 | 18 ft | 4 kts | 263° |
| 2026-04-26 08:40 | 45.50425 | 12.34238 | 18 ft | 4 kts | 266° |
| 2026-04-26 08:41 | 45.50423 | 12.34199 | 18 ft | 4 kts | 266° |
| 2026-04-26 08:41 | 45.50423 | 12.34191 | 18 ft | 0 kts | 266° |